createdAt,value
2018-04-18T06:30:49.439Z,71.34
2018-04-18T06:33:17.001Z,70.81
2018-04-18T06:35:44.559Z,70.41
2018-04-18T06:38:12.162Z,69.76
2018-04-18T06:40:39.734Z,69.65
2018-04-18T06:43:07.279Z,69.54
2018-04-18T06:45:35.720Z,69.21
2018-04-18T06:48:03.806Z,68.85
2018-04-18T06:50:31.337Z,68.66
2018-04-18T06:52:58.862Z,68.52
2018-04-18T06:55:27.033Z,68.00
2018-04-18T06:57:54.582Z,67.05
2018-04-18T07:00:22.118Z,66.30
2018-04-18T07:02:49.735Z,65.69
2018-04-18T07:05:17.271Z,66.37
2018-04-18T07:07:44.801Z,65.33
2018-04-18T07:10:18.325Z,65.27
2018-04-18T07:12:46.610Z,64.94
2018-04-18T07:15:14.186Z,64.47
2018-04-18T07:17:41.713Z,64.35
2018-04-18T07:20:09.955Z,63.31
2018-04-18T07:22:38.162Z,61.78
2018-04-18T07:25:06.531Z,61.36
2018-04-18T07:27:34.116Z,59.20
2018-04-18T07:30:01.670Z,59.70
2018-04-18T07:32:29.253Z,59.38
2018-04-18T07:34:56.851Z,59.71
2018-04-18T07:37:24.442Z,60.02
2018-04-18T07:39:51.998Z,59.73
2018-04-18T07:42:19.625Z,59.42
2018-04-18T07:44:47.800Z,59.21
2018-04-18T07:47:15.343Z,59.44
2018-04-18T07:49:43.377Z,59.06
2018-04-18T07:52:11.054Z,58.71
2018-04-18T07:54:38.611Z,58.76
2018-04-18T07:57:06.159Z,59.26
2018-04-18T07:59:33.753Z,59.45
2018-04-18T08:02:01.283Z,59.81
2018-04-18T08:04:28.874Z,59.86
2018-04-18T08:06:56.408Z,59.67
2018-04-18T08:09:23.946Z,59.49
2018-04-18T08:11:52.188Z,59.77
2018-04-18T08:14:20.354Z,60.20
2018-04-18T08:16:47.902Z,60.74
2018-04-18T08:19:15.433Z,60.39
2018-04-18T08:21:44.540Z,60.36
2018-04-18T08:24:12.722Z,60.67
2018-04-18T08:26:41.046Z,60.76
2018-04-18T08:29:08.580Z,60.47
2018-04-18T08:31:36.145Z,60.52
2018-04-18T08:34:03.761Z,61.22
2018-04-18T08:36:31.316Z,61.48
2018-04-18T08:38:59.280Z,61.42
2018-04-18T08:41:27.396Z,60.82
2018-04-18T08:43:55.481Z,60.88
2018-04-18T08:46:23.028Z,61.66
2018-04-18T08:48:51.926Z,61.81
2018-04-18T08:51:19.493Z,62.18
2018-04-18T08:53:47.051Z,62.57
2018-04-18T08:56:14.611Z,62.59
2018-04-18T08:58:42.216Z,62.48
2018-04-18T09:01:09.745Z,62.75
2018-04-18T09:03:37.718Z,63.03
2018-04-18T09:06:05.270Z,62.80
2018-04-18T09:08:32.794Z,62.76
2018-04-18T09:11:00.373Z,62.65
2018-04-18T09:13:28.591Z,62.59
2018-04-18T09:15:56.121Z,62.39
2018-04-18T09:18:23.654Z,62.03
2018-04-18T09:20:51.957Z,61.83
2018-04-18T09:23:20.213Z,61.71
2018-04-18T09:25:48.336Z,61.51
2018-04-18T09:28:15.900Z,61.63
2018-04-18T09:30:43.454Z,60.94
2018-04-18T09:33:11.937Z,60.96
2018-04-18T09:35:39.494Z,61.49
2018-04-18T09:38:07.078Z,61.22
2018-04-18T09:40:34.664Z,61.54
2018-04-18T09:43:02.224Z,62.09
2018-04-18T09:45:31.082Z,62.51
2018-04-18T09:47:59.393Z,61.93
2018-04-18T09:50:26.938Z,61.59
2018-04-18T09:52:54.466Z,61.08
2018-04-18T09:55:22.030Z,60.78
2018-04-18T09:57:49.554Z,60.51
2018-04-18T10:00:17.089Z,59.86
2018-04-18T10:02:44.698Z,59.76
2018-04-18T10:05:12.360Z,59.74
2018-04-18T10:07:39.893Z,59.58
2018-04-18T10:10:07.526Z,59.43
2018-04-18T10:12:35.978Z,58.22
2018-04-18T10:15:03.634Z,58.05
2018-04-18T10:17:31.179Z,57.71
2018-04-18T10:19:59.290Z,58.32
2018-04-18T10:22:27.854Z,58.20
2018-04-18T10:24:56.265Z,57.55
2018-04-18T10:27:23.812Z,57.03
2018-04-18T10:29:51.899Z,57.74
2018-04-18T10:32:19.510Z,57.12
2018-04-18T10:34:47.054Z,57.37
2018-04-18T10:37:14.595Z,57.30
2018-04-18T10:39:42.682Z,57.61
2018-04-18T10:42:11.445Z,57.86
2018-04-18T10:44:40.214Z,57.87
2018-04-18T10:47:07.994Z,57.94
2018-04-18T10:49:36.145Z,57.79
2018-04-18T10:52:04.573Z,57.59
2018-04-18T10:54:32.148Z,57.30
2018-04-18T10:56:59.731Z,57.60
2018-04-18T10:59:27.330Z,56.66
2018-04-18T11:01:55.788Z,55.64
2018-04-18T11:04:23.360Z,55.60
2018-04-18T11:06:51.046Z,55.14
2018-04-18T11:09:18.584Z,55.77
2018-04-18T11:11:46.860Z,56.34
2018-04-18T11:14:15.088Z,56.85
2018-04-18T11:16:42.667Z,56.99
2018-04-18T11:19:11.017Z,56.83
2018-04-18T11:21:39.318Z,56.87
2018-04-18T11:24:07.276Z,56.33
2018-04-18T11:26:35.350Z,55.55
2018-04-18T11:29:02.884Z,55.63
2018-04-18T11:31:30.431Z,56.03
2018-04-18T11:33:59.456Z,56.17
2018-04-18T11:36:27.428Z,56.36
2018-04-18T11:38:55.032Z,56.51
2018-04-18T11:41:23.604Z,56.25
2018-04-18T11:43:52.948Z,56.12
2018-04-18T11:46:20.603Z,56.52
2018-04-18T11:48:48.835Z,56.44
2018-04-18T11:51:16.387Z,54.65
2018-04-18T11:53:44.737Z,54.36
2018-04-18T11:56:12.314Z,54.72
2018-04-18T11:58:40.001Z,55.45
2018-04-18T12:01:07.562Z,54.74
2018-04-18T12:03:35.099Z,55.06
2018-04-18T12:06:02.643Z,55.27
2018-04-18T12:08:30.249Z,54.93
2018-04-18T12:10:58.583Z,54.83
2018-04-18T12:13:26.610Z,53.28
2018-04-18T12:15:54.152Z,53.66
2018-04-18T12:18:22.507Z,54.03
2018-04-18T12:20:50.709Z,53.71
2018-04-18T12:23:18.925Z,53.83
2018-04-18T12:25:47.534Z,53.78
2018-04-18T12:28:15.129Z,53.16
2018-04-18T12:30:43.292Z,52.99
2018-04-18T12:33:11.413Z,52.48
2018-04-18T12:35:38.961Z,51.41
2018-04-18T12:38:06.543Z,51.55
2018-04-18T12:40:34.205Z,51.63
2018-04-18T12:43:01.749Z,51.33
2018-04-18T12:45:30.088Z,49.85
2018-04-18T12:47:58.519Z,48.41
2018-04-18T12:50:26.901Z,47.38
2018-04-18T12:52:55.166Z,47.88
2018-04-18T12:55:22.702Z,47.92
2018-04-18T12:57:51.423Z,47.93
2018-04-18T13:00:19.003Z,46.11
2018-04-18T13:02:46.527Z,46.06
2018-04-18T13:05:14.082Z,46.04
2018-04-18T13:07:42.401Z,46.19
2018-04-18T13:10:09.952Z,46.61
2018-04-18T13:12:38.024Z,45.24
2018-04-18T13:15:06.216Z,45.84
2018-04-18T13:17:33.746Z,45.94
2018-04-18T13:20:01.818Z,46.91
2018-04-18T13:22:29.878Z,47.13
2018-04-18T13:24:58.123Z,46.69
2018-04-18T13:27:25.668Z,46.86
2018-04-18T13:29:53.214Z,46.62
2018-04-18T13:32:21.066Z,46.36
2018-04-18T13:34:48.614Z,45.51
2018-04-18T13:37:16.180Z,45.57
2018-04-18T13:39:43.769Z,46.12
2018-04-18T13:42:11.406Z,46.70
2018-04-18T13:44:39.774Z,47.20
2018-04-18T13:47:07.295Z,46.75
2018-04-18T13:49:35.688Z,46.82
2018-04-18T13:52:04.720Z,47.05
2018-04-18T13:54:32.244Z,47.37
2018-04-18T13:57:00.291Z,47.14
2018-04-18T13:59:27.828Z,47.07
2018-04-18T14:01:55.372Z,46.95
2018-04-18T14:04:22.955Z,47.48
2018-04-18T14:06:50.953Z,47.92
2018-04-18T14:09:18.495Z,48.32
2018-04-18T14:11:46.711Z,48.22
2018-04-18T14:14:15.873Z,47.90
2018-04-18T14:16:43.411Z,46.93
2018-04-18T14:19:11.533Z,47.04
2018-04-18T14:21:39.580Z,46.70
2018-04-18T14:24:07.749Z,46.17
2018-04-18T14:26:35.871Z,45.58
2018-04-18T14:29:03.475Z,45.50
2018-04-18T14:31:31.002Z,44.54
2018-04-18T14:33:58.602Z,44.98
2018-04-18T14:36:26.162Z,45.25
2018-04-18T14:38:53.707Z,44.95
2018-04-18T14:41:21.716Z,44.54
2018-04-18T14:43:49.791Z,44.54
2018-04-18T14:46:17.342Z,44.42
2018-04-18T14:48:45.581Z,44.42
2018-04-18T14:51:13.111Z,44.68
2018-04-18T14:53:41.257Z,44.93
2018-04-18T14:56:08.804Z,45.04
2018-04-18T14:58:36.331Z,45.17
2018-04-18T15:01:03.908Z,45.23
2018-04-18T15:03:31.439Z,45.56
2018-04-18T15:05:59.052Z,45.49
2018-04-18T15:08:27.131Z,45.48
2018-04-18T15:10:55.500Z,44.49
2018-04-18T15:13:23.928Z,44.18
2018-04-18T15:15:51.491Z,44.44
2018-04-18T15:18:19.020Z,44.33
2018-04-18T15:20:48.113Z,44.51
2018-04-18T15:23:16.225Z,44.33
2018-04-18T15:25:44.240Z,43.83
2018-04-18T15:28:13.642Z,43.80
2018-04-18T15:30:41.294Z,43.68
2018-04-18T15:33:09.010Z,43.71
2018-04-18T15:35:36.600Z,43.68
2018-04-18T15:38:04.128Z,43.69
2018-04-18T15:40:32.536Z,43.37
2018-04-18T15:43:00.078Z,43.35
2018-04-18T15:45:28.293Z,43.22
2018-04-18T15:47:56.560Z,42.98
2018-04-18T15:50:24.151Z,42.47
2018-04-18T15:52:52.266Z,41.75
2018-04-18T15:55:19.823Z,41.11
2018-04-18T15:57:47.356Z,40.44
2018-04-18T16:00:14.952Z,39.90
2018-04-18T16:02:42.819Z,39.06
2018-04-18T16:05:10.507Z,39.08
2018-04-18T16:07:38.590Z,39.01
2018-04-18T16:10:06.344Z,38.79
2018-04-18T16:12:34.744Z,38.92
2018-04-18T16:15:02.281Z,38.74
2018-04-18T16:17:29.825Z,38.96
2018-04-18T16:19:57.958Z,38.82
2018-04-18T16:22:26.336Z,38.67
2018-04-18T16:24:53.862Z,38.64
2018-04-18T16:27:22.969Z,38.69
2018-04-18T16:29:50.531Z,38.76
2018-04-18T16:32:18.066Z,39.15
2018-04-18T16:34:45.674Z,39.17
2018-04-18T16:37:13.228Z,39.31
2018-04-18T16:39:41.058Z,39.31
2018-04-18T16:42:09.849Z,39.38
2018-04-18T16:44:38.264Z,39.46
2018-04-18T16:47:05.802Z,39.72
2018-04-18T16:49:33.969Z,39.81
2018-04-18T16:52:02.348Z,39.83
2018-04-18T16:54:29.997Z,40.14
2018-04-18T16:56:57.539Z,40.24
2018-04-18T16:59:25.114Z,40.11
2018-04-18T17:01:53.451Z,40.21
2018-04-18T17:04:21.067Z,40.43
2018-04-18T17:06:49.276Z,40.76
2018-04-18T17:09:16.823Z,42.04
2018-04-18T17:11:45.216Z,42.53
2018-04-18T17:14:13.372Z,42.76
2018-04-18T17:16:41.195Z,43.31
2018-04-18T17:19:10.068Z,43.95
2018-04-18T17:21:38.585Z,44.63
2018-04-18T17:24:07.073Z,45.65
2018-04-18T17:26:35.248Z,46.63
2018-04-18T17:29:02.890Z,47.65
2018-04-18T17:31:30.464Z,48.67
2018-04-18T17:33:58.126Z,49.67
2018-04-18T17:36:25.679Z,50.47
2018-04-18T17:38:53.206Z,51.32
2018-04-18T17:41:20.791Z,51.42
2018-04-18T17:43:49.182Z,51.32
2018-04-18T17:46:16.811Z,51.12
2018-04-18T17:48:45.164Z,51.10
2018-04-18T17:51:12.690Z,51.12
2018-04-18T17:53:41.287Z,51.22
2018-04-18T17:56:09.559Z,51.42
2018-04-18T17:58:37.082Z,51.95
2018-04-18T18:01:04.643Z,52.67
2018-04-18T18:03:33.040Z,53.28
2018-04-18T18:06:00.619Z,53.96
2018-04-18T18:08:28.898Z,54.47
2018-04-18T18:10:56.511Z,55.04
2018-04-18T18:13:24.438Z,55.49
2018-04-18T18:15:52.459Z,55.98
2018-04-18T18:18:20.712Z,56.49
2018-04-18T18:20:48.969Z,56.92
2018-04-18T18:23:16.856Z,57.27
2018-04-18T18:25:45.236Z,57.69
2018-04-18T18:28:12.790Z,58.00
2018-04-18T18:30:40.500Z,58.43
2018-04-18T18:33:08.094Z,58.71
2018-04-18T18:35:35.631Z,59.05
2018-04-18T18:38:03.280Z,59.38
2018-04-18T18:40:30.871Z,59.71
2018-04-18T18:42:58.465Z,59.97
2018-04-18T18:45:26.637Z,60.40
2018-04-18T18:47:54.706Z,60.64
2018-04-18T18:50:22.327Z,60.99
2018-04-18T18:52:50.536Z,61.35
2018-04-18T18:55:18.587Z,61.52
2018-04-18T18:57:46.126Z,61.71
2018-04-18T19:00:14.785Z,61.86
2018-04-18T19:02:42.964Z,61.96
2018-04-18T19:05:11.086Z,62.13
2018-04-18T19:07:39.461Z,62.38
2018-04-18T19:10:08.522Z,62.43
2018-04-18T19:12:36.685Z,62.58
2018-04-18T19:15:04.239Z,62.85
2018-04-18T19:17:31.779Z,62.90
2018-04-18T19:19:59.934Z,63.03
2018-04-18T19:22:28.151Z,63.35
2018-04-18T19:24:56.397Z,63.68
2018-04-18T19:27:24.177Z,63.84
2018-04-18T19:29:51.783Z,64.20
2018-04-18T19:32:19.484Z,64.39
2018-04-18T19:34:47.003Z,64.75
2018-04-18T19:37:14.545Z,64.89
2018-04-18T19:39:42.293Z,65.02
2018-04-18T19:42:09.904Z,65.11
2018-04-18T19:44:38.422Z,65.34
2018-04-18T19:47:05.959Z,65.52
2018-04-18T19:49:34.806Z,65.45
2018-04-18T19:52:03.266Z,65.51
2018-04-18T19:54:31.704Z,65.26
2018-04-18T19:57:00.256Z,65.19
2018-04-18T19:59:28.305Z,65.39
2018-04-18T20:01:55.851Z,65.54
2018-04-18T20:04:23.386Z,65.87
2018-04-18T20:06:51.819Z,65.91
2018-04-18T20:09:19.954Z,66.26
2018-04-18T20:11:48.259Z,66.36
2018-04-18T20:14:16.720Z,66.59
2018-04-18T20:16:44.262Z,66.55
2018-04-18T20:19:12.663Z,66.61
2018-04-18T20:21:41.006Z,66.89
2018-04-18T20:24:09.462Z,66.97
2018-04-18T20:26:37.638Z,67.05
2018-04-18T20:29:05.849Z,67.38
2018-04-18T20:31:33.384Z,67.43
2018-04-18T20:34:00.951Z,67.50
2018-04-18T20:36:28.563Z,67.74
2018-04-18T20:38:56.101Z,68.19
2018-04-18T20:41:23.655Z,68.19
2018-04-18T20:43:51.879Z,68.20
2018-04-18T20:46:19.461Z,68.56
2018-04-18T20:48:47.667Z,68.73
2018-04-18T20:51:15.239Z,68.76
2018-04-18T20:53:43.475Z,68.84
2018-04-18T20:56:11.695Z,69.18
2018-04-18T20:58:39.309Z,69.37
2018-04-18T21:01:06.836Z,69.66
2018-04-18T21:03:34.408Z,69.70
2018-04-18T21:06:02.056Z,69.91
2018-04-18T21:08:30.163Z,70.04
2018-04-18T21:10:57.695Z,70.04
2018-04-18T21:13:26.664Z,70.18
2018-04-18T21:15:54.195Z,70.25
2018-04-18T21:18:22.575Z,70.43
2018-04-18T21:20:50.728Z,70.47
2018-04-18T21:23:18.863Z,70.41
2018-04-18T21:25:46.948Z,70.57
2018-04-18T21:28:14.479Z,70.56
2018-04-18T21:30:42.150Z,70.51
2018-04-18T21:33:09.740Z,70.62
2018-04-18T21:35:37.275Z,70.77
2018-04-18T21:38:04.855Z,70.99
2018-04-18T21:40:32.966Z,70.99
2018-04-18T21:43:00.727Z,71.35
2018-04-18T21:45:28.848Z,71.69
2018-04-18T21:47:57.081Z,71.94
2018-04-18T21:50:24.608Z,72.23
2018-04-18T21:52:53.360Z,72.43
2018-04-18T21:55:21.553Z,72.61
2018-04-18T21:57:49.103Z,72.83
2018-04-18T22:00:16.665Z,73.02
2018-04-18T22:02:44.249Z,73.03
2018-04-18T22:05:11.806Z,73.24
2018-04-18T22:07:40.032Z,73.36
2018-04-18T22:10:07.594Z,73.43
2018-04-18T22:12:35.850Z,73.47
2018-04-18T22:15:03.414Z,73.36
2018-04-18T22:17:31.642Z,73.69
2018-04-18T22:20:00.128Z,73.90
2018-04-18T22:22:28.187Z,74.12
2018-04-18T22:24:56.154Z,74.12
2018-04-18T22:27:24.409Z,74.22
2018-04-18T22:29:51.957Z,74.44
2018-04-18T22:32:19.540Z,74.62
2018-04-18T22:34:47.111Z,74.81
2018-04-18T22:37:14.719Z,74.64
2018-04-18T22:39:42.927Z,74.74
2018-04-18T22:42:10.596Z,74.82
2018-04-18T22:44:38.999Z,74.81
2018-04-18T22:47:06.538Z,74.90
2018-04-18T22:49:34.701Z,75.14
2018-04-18T22:52:02.786Z,75.10
2018-04-18T22:54:30.333Z,75.10
2018-04-18T22:56:57.874Z,75.25
2018-04-18T22:59:25.593Z,75.35
2018-04-18T23:01:53.177Z,75.33
2018-04-18T23:04:20.883Z,75.39
2018-04-18T23:06:49.195Z,75.17
2018-04-18T23:09:16.750Z,75.26
2018-04-18T23:11:44.971Z,75.23
2018-04-18T23:14:13.202Z,75.46
2018-04-18T23:16:41.377Z,75.45
2018-04-18T23:19:09.690Z,75.71
2018-04-18T23:21:37.842Z,75.79
2018-04-18T23:24:06.072Z,76.13
2018-04-18T23:26:34.136Z,76.56
2018-04-18T23:29:01.671Z,76.66
2018-04-18T23:31:29.213Z,76.87
2018-04-18T23:33:56.775Z,77.09
2018-04-18T23:36:24.308Z,77.40
2018-04-18T23:38:51.971Z,77.44
2018-04-18T23:41:19.559Z,77.64
2018-04-18T23:43:47.743Z,77.78
2018-04-18T23:46:15.511Z,78.09
2018-04-18T23:48:43.807Z,78.44
2018-04-18T23:51:11.454Z,78.55
2018-04-18T23:53:39.647Z,79.06
2018-04-18T23:56:07.201Z,78.98
2018-04-18T23:58:34.743Z,79.23
